sensor_id;sensor_type;location;lat;lon;timestamp;pressure;altitude;pressure_sealevel;temperature;humidity
70589;BME280;58152;49.202;18.744;2023-07-31T00:00:46;97117.22;;;17.79;70.48
70589;BME280;58152;49.202;18.744;2023-07-31T00:03:11;97118.91;;;17.80;70.55
70589;BME280;58152;49.202;18.744;2023-07-31T00:05:37;97109.63;;;17.74;70.53
70589;BME280;58152;49.202;18.744;2023-07-31T00:08:02;97110.34;;;17.76;70.73
70589;BME280;58152;49.202;18.744;2023-07-31T00:10:28;97102.66;;;17.73;70.55
70589;BME280;58152;49.202;18.744;2023-07-31T00:12:53;97105.16;;;17.75;70.87
70589;BME280;58152;49.202;18.744;2023-07-31T00:15:19;97106.47;;;17.69;70.79
70589;BME280;58152;49.202;18.744;2023-07-31T00:17:44;97105.63;;;17.69;70.81
70589;BME280;58152;49.202;18.744;2023-07-31T00:20:10;97099.34;;;17.70;70.88
70589;BME280;58152;49.202;18.744;2023-07-31T00:22:38;97110.81;;;17.70;71.02
70589;BME280;58152;49.202;18.744;2023-07-31T00:25:04;97104.03;;;17.66;71.14
70589;BME280;58152;49.202;18.744;2023-07-31T00:27:31;97112.00;;;17.66;71.10
70589;BME280;58152;49.202;18.744;2023-07-31T00:29:57;97106.09;;;17.63;71.34
70589;BME280;58152;49.202;18.744;2023-07-31T00:32:22;97124.28;;;17.67;71.15
70589;BME280;58152;49.202;18.744;2023-07-31T00:34:48;97119.25;;;17.64;71.43
70589;BME280;58152;49.202;18.744;2023-07-31T00:37:13;97117.06;;;17.69;71.53
70589;BME280;58152;49.202;18.744;2023-07-31T00:39:40;97126.84;;;17.69;71.47
70589;BME280;58152;49.202;18.744;2023-07-31T00:42:06;97118.75;;;17.70;71.37
70589;BME280;58152;49.202;18.744;2023-07-31T00:44:32;97115.00;;;17.62;71.78
70589;BME280;58152;49.202;18.744;2023-07-31T00:46:57;97108.47;;;17.54;72.05
70589;BME280;58152;49.202;18.744;2023-07-31T00:49:24;97111.88;;;17.57;71.90
70589;BME280;58152;49.202;18.744;2023-07-31T00:51:50;97104.03;;;17.55;72.07
70589;BME280;58152;49.202;18.744;2023-07-31T00:54:16;97095.81;;;17.58;71.88
70589;BME280;58152;49.202;18.744;2023-07-31T00:56:45;97090.78;;;17.55;71.97
70589;BME280;58152;49.202;18.744;2023-07-31T00:59:10;97110.91;;;17.58;71.77
70589;BME280;58152;49.202;18.744;2023-07-31T01:01:36;97105.72;;;17.56;71.97
70589;BME280;58152;49.202;18.744;2023-07-31T01:04:04;97110.19;;;17.56;71.91
70589;BME280;58152;49.202;18.744;2023-07-31T01:06:36;97110.28;;;17.54;72.00
70589;BME280;58152;49.202;18.744;2023-07-31T01:11:38;97105.59;;;17.46;72.00
70589;BME280;58152;49.202;18.744;2023-07-31T01:14:07;97112.19;;;17.41;72.06
70589;BME280;58152;49.202;18.744;2023-07-31T01:16:32;97122.78;;;17.41;72.17
70589;BME280;58152;49.202;18.744;2023-07-31T01:18:58;97113.28;;;17.38;72.11
70589;BME280;58152;49.202;18.744;2023-07-31T01:27:07;97115.31;;;17.35;72.42
70589;BME280;58152;49.202;18.744;2023-07-31T01:29:37;97123.75;;;17.40;72.58
70589;BME280;58152;49.202;18.744;2023-07-31T01:32:04;97119.66;;;17.36;72.80
70589;BME280;58152;49.202;18.744;2023-07-31T01:34:32;97120.50;;;17.36;72.73
70589;BME280;58152;49.202;18.744;2023-07-31T01:36:57;97116.50;;;17.31;72.99
70589;BME280;58152;49.202;18.744;2023-07-31T01:39:26;97115.44;;;17.33;73.24
70589;BME280;58152;49.202;18.744;2023-07-31T01:41:51;97131.22;;;17.35;73.23
70589;BME280;58152;49.202;18.744;2023-07-31T01:44:17;97125.94;;;17.35;73.38
70589;BME280;58152;49.202;18.744;2023-07-31T01:46:43;97120.75;;;17.33;73.04
70589;BME280;58152;49.202;18.744;2023-07-31T01:49:09;97120.63;;;17.35;73.18
70589;BME280;58152;49.202;18.744;2023-07-31T01:51:35;97123.06;;;17.38;73.35
70589;BME280;58152;49.202;18.744;2023-07-31T01:54:01;97112.66;;;17.35;73.53
70589;BME280;58152;49.202;18.744;2023-07-31T01:56:27;97113.88;;;17.31;73.48
70589;BME280;58152;49.202;18.744;2023-07-31T01:58:52;97136.53;;;17.35;73.63
70589;BME280;58152;49.202;18.744;2023-07-31T02:01:18;97134.34;;;17.28;73.81
70589;BME280;58152;49.202;18.744;2023-07-31T02:03:45;97141.97;;;17.33;73.66
70589;BME280;58152;49.202;18.744;2023-07-31T02:06:11;97138.34;;;17.34;73.41
70589;BME280;58152;49.202;18.744;2023-07-31T02:08:36;97126.41;;;17.28;73.83
70589;BME280;58152;49.202;18.744;2023-07-31T02:11:02;97137.00;;;17.28;73.84
70589;BME280;58152;49.202;18.744;2023-07-31T02:13:28;97137.50;;;17.34;73.51
70589;BME280;58152;49.202;18.744;2023-07-31T02:15:53;97140.03;;;17.35;73.72
70589;BME280;58152;49.202;18.744;2023-07-31T02:18:19;97139.53;;;17.30;73.64
70589;BME280;58152;49.202;18.744;2023-07-31T02:20:51;97137.97;;;17.27;73.85
70589;BME280;58152;49.202;18.744;2023-07-31T02:23:17;97146.66;;;17.30;73.83
70589;BME280;58152;49.202;18.744;2023-07-31T02:25:43;97135.31;;;17.27;74.01
70589;BME280;58152;49.202;18.744;2023-07-31T02:28:09;97143.16;;;17.29;74.00
70589;BME280;58152;49.202;18.744;2023-07-31T02:30:34;97137.72;;;17.31;73.78
70589;BME280;58152;49.202;18.744;2023-07-31T02:33:00;97135.53;;;17.24;73.95
70589;BME280;58152;49.202;18.744;2023-07-31T02:35:25;97150.34;;;17.27;73.98
70589;BME280;58152;49.202;18.744;2023-07-31T02:37:51;97140.00;;;17.24;74.06
70589;BME280;58152;49.202;18.744;2023-07-31T02:40:16;97123.47;;;17.20;74.42
70589;BME280;58152;49.202;18.744;2023-07-31T02:42:42;97126.13;;;17.20;74.39
70589;BME280;58152;49.202;18.744;2023-07-31T02:45:10;97131.22;;;17.23;74.64
70589;BME280;58152;49.202;18.744;2023-07-31T02:47:35;97128.78;;;17.20;74.51
70589;BME280;58152;49.202;18.744;2023-07-31T02:50:03;97123.81;;;17.16;74.85
70589;BME280;58152;49.202;18.744;2023-07-31T02:52:29;97136.13;;;17.17;75.13
70589;BME280;58152;49.202;18.744;2023-07-31T02:54:54;97138.28;;;17.12;74.91
70589;BME280;58152;49.202;18.744;2023-07-31T02:57:20;97147.81;;;17.14;74.98
70589;BME280;58152;49.202;18.744;2023-07-31T02:59:48;97140.91;;;17.12;74.84
70589;BME280;58152;49.202;18.744;2023-07-31T03:02:14;97132.25;;;17.10;74.98
70589;BME280;58152;49.202;18.744;2023-07-31T03:04:39;97155.00;;;17.12;75.28
70589;BME280;58152;49.202;18.744;2023-07-31T03:07:05;97149.09;;;17.09;75.18
70589;BME280;58152;49.202;18.744;2023-07-31T03:09:30;97154.50;;;17.07;75.39
70589;BME280;58152;49.202;18.744;2023-07-31T03:11:56;97149.34;;;17.06;75.38
70589;BME280;58152;49.202;18.744;2023-07-31T03:14:22;97150.19;;;17.06;75.36
70589;BME280;58152;49.202;18.744;2023-07-31T03:16:48;97170.91;;;17.12;75.70
70589;BME280;58152;49.202;18.744;2023-07-31T03:19:17;97161.50;;;17.08;75.41
70589;BME280;58152;49.202;18.744;2023-07-31T03:21:43;97161.28;;;17.11;75.56
70589;BME280;58152;49.202;18.744;2023-07-31T03:24:09;97158.00;;;17.08;75.64
70589;BME280;58152;49.202;18.744;2023-07-31T03:26:34;97162.97;;;17.12;75.59
70589;BME280;58152;49.202;18.744;2023-07-31T03:29:02;97156.94;;;17.10;75.56
70589;BME280;58152;49.202;18.744;2023-07-31T03:31:30;97157.38;;;17.04;76.06
70589;BME280;58152;49.202;18.744;2023-07-31T03:33:56;97154.72;;;17.04;76.13
70589;BME280;58152;49.202;18.744;2023-07-31T03:36:21;97168.50;;;17.09;76.08
70589;BME280;58152;49.202;18.744;2023-07-31T03:38:48;97167.56;;;17.10;76.02
70589;BME280;58152;49.202;18.744;2023-07-31T03:41:14;97171.88;;;17.11;76.22
70589;BME280;58152;49.202;18.744;2023-07-31T03:43:39;97168.59;;;17.08;76.26
70589;BME280;58152;49.202;18.744;2023-07-31T03:46:04;97161.63;;;17.07;76.05
70589;BME280;58152;49.202;18.744;2023-07-31T03:48:30;97173.34;;;17.15;76.22
70589;BME280;58152;49.202;18.744;2023-07-31T03:50:56;97164.16;;;17.08;76.61
70589;BME280;58152;49.202;18.744;2023-07-31T03:53:21;97164.28;;;17.07;76.58
70589;BME280;58152;49.202;18.744;2023-07-31T03:55:47;97170.53;;;17.06;76.77
70589;BME280;58152;49.202;18.744;2023-07-31T03:58:12;97171.88;;;17.11;76.69
70589;BME280;58152;49.202;18.744;2023-07-31T04:00:39;97166.22;;;17.05;76.90
70589;BME280;58152;49.202;18.744;2023-07-31T04:03:04;97179.84;;;17.11;76.85
70589;BME280;58152;49.202;18.744;2023-07-31T04:05:31;97168.50;;;17.09;76.96
70589;BME280;58152;49.202;18.744;2023-07-31T04:07:57;97158.25;;;17.05;77.07
70589;BME280;58152;49.202;18.744;2023-07-31T04:10:22;97165.25;;;17.06;77.13
70589;BME280;58152;49.202;18.744;2023-07-31T04:12:48;97172.84;;;17.10;76.90
70589;BME280;58152;49.202;18.744;2023-07-31T04:15:13;97175.25;;;17.13;77.00
70589;BME280;58152;49.202;18.744;2023-07-31T04:17:39;97169.22;;;17.11;77.01
70589;BME280;58152;49.202;18.744;2023-07-31T04:20:05;97168.25;;;17.12;76.90
70589;BME280;58152;49.202;18.744;2023-07-31T04:22:30;97162.25;;;17.10;76.88
70589;BME280;58152;49.202;18.744;2023-07-31T04:24:56;97165.88;;;17.09;76.84
70589;BME280;58152;49.202;18.744;2023-07-31T04:27:21;97153.47;;;17.10;76.98
70589;BME280;58152;49.202;18.744;2023-07-31T04:29:47;97169.00;;;17.14;77.21
70589;BME280;58152;49.202;18.744;2023-07-31T04:32:13;97162.88;;;17.14;77.03
70589;BME280;58152;49.202;18.744;2023-07-31T04:34:38;97162.88;;;17.14;77.21
70589;BME280;58152;49.202;18.744;2023-07-31T04:37:03;97159.34;;;17.13;77.18
70589;BME280;58152;49.202;18.744;2023-07-31T04:39:29;97156.94;;;17.10;77.33
70589;BME280;58152;49.202;18.744;2023-07-31T04:41:55;97157.78;;;17.11;77.43
70589;BME280;58152;49.202;18.744;2023-07-31T04:44:20;97149.84;;;17.11;77.42
70589;BME280;58152;49.202;18.744;2023-07-31T04:46:45;97155.13;;;17.11;77.12
70589;BME280;58152;49.202;18.744;2023-07-31T04:49:11;97151.41;;;17.13;77.24
70589;BME280;58152;49.202;18.744;2023-07-31T04:51:37;97147.06;;;17.12;77.46
70589;BME280;58152;49.202;18.744;2023-07-31T04:54:03;97161.66;;;17.18;77.82
70589;BME280;58152;49.202;18.744;2023-07-31T04:56:28;97153.59;;;17.19;77.73
70589;BME280;58152;49.202;18.744;2023-07-31T04:58:54;97158.91;;;17.19;77.97
70589;BME280;58152;49.202;18.744;2023-07-31T05:01:20;97161.56;;;17.19;77.73
70589;BME280;58152;49.202;18.744;2023-07-31T05:03:45;97162.06;;;17.24;77.70
70589;BME280;58152;49.202;18.744;2023-07-31T05:06:10;97157.59;;;17.25;77.75
70589;BME280;58152;49.202;18.744;2023-07-31T05:08:37;97155.66;;;17.27;77.63
70589;BME280;58152;49.202;18.744;2023-07-31T05:11:02;97144.00;;;17.30;77.76
70589;BME280;58152;49.202;18.744;2023-07-31T05:13:28;97144.00;;;17.30;77.58
70589;BME280;58152;49.202;18.744;2023-07-31T05:15:53;97145.59;;;17.32;77.07
70589;BME280;58152;49.202;18.744;2023-07-31T05:18:19;97139.41;;;17.32;77.22
70589;BME280;58152;49.202;18.744;2023-07-31T05:20:44;97144.50;;;17.35;77.21
70589;BME280;58152;49.202;18.744;2023-07-31T05:23:09;97145.94;;;17.39;77.18
70589;BME280;58152;49.202;18.744;2023-07-31T05:25:35;97145.09;;;17.38;76.95
70589;BME280;58152;49.202;18.744;2023-07-31T05:28:00;97152.09;;;17.39;76.89
70589;BME280;58152;49.202;18.744;2023-07-31T05:30:26;97151.88;;;17.42;76.47
70589;BME280;58152;49.202;18.744;2023-07-31T05:32:51;97151.63;;;17.45;76.71
70589;BME280;58152;49.202;18.744;2023-07-31T05:35:17;97149.84;;;17.46;76.21
70589;BME280;58152;49.202;18.744;2023-07-31T05:37:42;97147.91;;;17.48;76.01
70589;BME280;58152;49.202;18.744;2023-07-31T05:40:08;97143.56;;;17.47;75.63
70589;BME280;58152;49.202;18.744;2023-07-31T05:42:34;97144.53;;;17.46;74.82
70589;BME280;58152;49.202;18.744;2023-07-31T05:45:00;97145.38;;;17.46;74.43
70589;BME280;58152;49.202;18.744;2023-07-31T05:47:26;97146.31;;;17.45;74.41
70589;BME280;58152;49.202;18.744;2023-07-31T05:49:51;97154.16;;;17.47;74.14
70589;BME280;58152;49.202;18.744;2023-07-31T05:52:18;97162.22;;;17.45;73.72
70589;BME280;58152;49.202;18.744;2023-07-31T05:54:44;97158.63;;;17.46;73.50
70589;BME280;58152;49.202;18.744;2023-07-31T05:57:11;97158.00;;;17.43;73.10
70589;BME280;58152;49.202;18.744;2023-07-31T05:59:36;97152.50;;;17.46;72.83
70589;BME280;58152;49.202;18.744;2023-07-31T06:02:02;97165.75;;;17.46;72.51
70589;BME280;58152;49.202;18.744;2023-07-31T06:04:27;97170.94;;;17.47;72.28
70589;BME280;58152;49.202;18.744;2023-07-31T06:06:53;97170.09;;;17.47;72.25
70589;BME280;58152;49.202;18.744;2023-07-31T06:09:18;97172.75;;;17.47;72.03
70589;BME280;58152;49.202;18.744;2023-07-31T06:11:45;97179.59;;;17.49;71.82
70589;BME280;58152;49.202;18.744;2023-07-31T06:14:13;97173.69;;;17.46;71.93
70589;BME280;58152;49.202;18.744;2023-07-31T06:16:38;97196.47;;;17.48;71.94
70589;BME280;58152;49.202;18.744;2023-07-31T06:19:04;97192.13;;;17.47;71.87
70589;BME280;58152;49.202;18.744;2023-07-31T06:21:29;97192.97;;;17.48;72.05
70589;BME280;58152;49.202;18.744;2023-07-31T06:23:56;97195.84;;;17.45;71.63
70589;BME280;58152;49.202;18.744;2023-07-31T06:26:21;97196.94;;;17.42;71.05
70589;BME280;58152;49.202;18.744;2023-07-31T06:28:47;97208.28;;;17.44;71.18
70589;BME280;58152;49.202;18.744;2023-07-31T06:31:12;97199.81;;;17.39;70.62
70589;BME280;58152;49.202;18.744;2023-07-31T06:33:37;97213.84;;;17.41;70.61
70589;BME280;58152;49.202;18.744;2023-07-31T06:36:03;97212.03;;;17.42;70.75
70589;BME280;58152;49.202;18.744;2023-07-31T06:38:28;97204.28;;;17.39;70.71
70589;BME280;58152;49.202;18.744;2023-07-31T06:40:54;97201.75;;;17.37;70.70
70589;BME280;58152;49.202;18.744;2023-07-31T06:43:19;97207.91;;;17.38;70.59
70589;BME280;58152;49.202;18.744;2023-07-31T06:45:45;97212.25;;;17.39;70.71
70589;BME280;58152;49.202;18.744;2023-07-31T06:48:11;97213.22;;;17.38;70.57
70589;BME280;58152;49.202;18.744;2023-07-31T06:50:37;97219.97;;;17.42;70.62
70589;BME280;58152;49.202;18.744;2023-07-31T06:53:02;97228.88;;;17.41;70.36
70589;BME280;58152;49.202;18.744;2023-07-31T06:55:28;97229.84;;;17.40;70.22
70589;BME280;58152;49.202;18.744;2023-07-31T06:57:54;97235.88;;;17.42;69.70
70589;BME280;58152;49.202;18.744;2023-07-31T07:00:21;97234.16;;;17.41;69.79
70589;BME280;58152;49.202;18.744;2023-07-31T07:02:47;97239.38;;;17.42;69.71
70589;BME280;58152;49.202;18.744;2023-07-31T07:05:13;97240.94;;;17.45;69.42
70589;BME280;58152;49.202;18.744;2023-07-31T07:07:41;97232.47;;;17.40;69.14
70589;BME280;58152;49.202;18.744;2023-07-31T07:10:07;97240.09;;;17.44;69.02
70589;BME280;58152;49.202;18.744;2023-07-31T07:12:33;97242.31;;;17.50;69.22
70589;BME280;58152;49.202;18.744;2023-07-31T07:14:59;97248.47;;;17.51;69.09
70589;BME280;58152;49.202;18.744;2023-07-31T07:17:26;97243.03;;;17.52;69.04
70589;BME280;58152;49.202;18.744;2023-07-31T07:19:51;97248.94;;;17.56;68.81
70589;BME280;58152;49.202;18.744;2023-07-31T07:22:18;97249.66;;;17.58;68.77
70589;BME280;58152;49.202;18.744;2023-07-31T07:24:43;97248.63;;;17.61;68.47
70589;BME280;58152;49.202;18.744;2023-07-31T07:27:09;97251.97;;;17.63;68.12
70589;BME280;58152;49.202;18.744;2023-07-31T07:29:34;97245.72;;;17.64;67.99
70589;BME280;58152;49.202;18.744;2023-07-31T07:32:00;97248.13;;;17.67;67.88
70589;BME280;58152;49.202;18.744;2023-07-31T07:34:27;97241.75;;;17.69;68.05
70589;BME280;58152;49.202;18.744;2023-07-31T07:36:52;97246.81;;;17.72;68.07
70589;BME280;58152;49.202;18.744;2023-07-31T07:39:18;97249.78;;;17.81;67.25
70589;BME280;58152;49.202;18.744;2023-07-31T07:41:43;97252.22;;;17.84;67.60
70589;BME280;58152;49.202;18.744;2023-07-31T07:44:09;97251.25;;;17.85;66.87
70589;BME280;58152;49.202;18.744;2023-07-31T07:46:34;97245.09;;;17.84;66.76
70589;BME280;58152;49.202;18.744;2023-07-31T07:49:00;97243.91;;;17.88;67.10
70589;BME280;58152;49.202;18.744;2023-07-31T07:51:25;97236.91;;;17.87;67.11
70589;BME280;58152;49.202;18.744;2023-07-31T07:53:50;97225.19;;;17.90;67.13
70589;BME280;58152;49.202;18.744;2023-07-31T07:56:16;97234.84;;;17.91;66.47
70589;BME280;58152;49.202;18.744;2023-07-31T07:58:41;97226.88;;;17.91;66.58
70589;BME280;58152;49.202;18.744;2023-07-31T08:01:07;97227.63;;;17.93;66.73
70589;BME280;58152;49.202;18.744;2023-07-31T08:03:32;97229.16;;;17.95;66.77
70589;BME280;58152;49.202;18.744;2023-07-31T08:06:01;97242.34;;;17.97;66.61
70589;BME280;58152;49.202;18.744;2023-07-31T08:08:27;97226.41;;;17.97;67.38
70589;BME280;58152;49.202;18.744;2023-07-31T08:10:52;97247.78;;;18.07;67.46
70589;BME280;58152;49.202;18.744;2023-07-31T08:13:18;97244.88;;;18.10;67.65
70589;BME280;58152;49.202;18.744;2023-07-31T08:15:52;97224.13;;;18.03;67.09
70589;BME280;58152;49.202;18.744;2023-07-31T08:18:18;97235.00;;;18.12;66.64
70589;BME280;58152;49.202;18.744;2023-07-31T08:20:44;97240.19;;;18.13;66.70
70589;BME280;58152;49.202;18.744;2023-07-31T08:23:09;97239.81;;;18.18;67.02
70589;BME280;58152;49.202;18.744;2023-07-31T08:25:35;97244.06;;;18.20;66.94
70589;BME280;58152;49.202;18.744;2023-07-31T08:28:02;97246.13;;;18.28;66.80
70589;BME280;58152;49.202;18.744;2023-07-31T08:30:27;97245.78;;;18.33;66.17
70589;BME280;58152;49.202;18.744;2023-07-31T08:32:53;97241.03;;;18.36;66.35
70589;BME280;58152;49.202;18.744;2023-07-31T08:35:18;97238.75;;;18.43;66.32
70589;BME280;58152;49.202;18.744;2023-07-31T08:37:44;97239.25;;;18.48;66.08
70589;BME280;58152;49.202;18.744;2023-07-31T08:40:10;97237.31;;;18.50;66.04
70589;BME280;58152;49.202;18.744;2023-07-31T08:42:43;97235.72;;;18.59;65.95
70589;BME280;58152;49.202;18.744;2023-07-31T08:45:10;97235.50;;;18.62;65.58
70589;BME280;58152;49.202;18.744;2023-07-31T08:47:38;97237.41;;;18.60;65.57
70589;BME280;58152;49.202;18.744;2023-07-31T08:50:04;97237.31;;;18.61;64.78
70589;BME280;58152;49.202;18.744;2023-07-31T08:52:30;97239.00;;;18.62;64.31
70589;BME280;58152;49.202;18.744;2023-07-31T08:54:56;97237.03;;;18.64;64.71
70589;BME280;58152;49.202;18.744;2023-07-31T08:57:21;97226.31;;;18.66;65.00
70589;BME280;58152;49.202;18.744;2023-07-31T08:59:47;97240.94;;;18.71;64.75
70589;BME280;58152;49.202;18.744;2023-07-31T09:02:14;97237.22;;;18.74;64.77
70589;BME280;58152;49.202;18.744;2023-07-31T09:04:40;97241.56;;;18.75;64.46
70589;BME280;58152;49.202;18.744;2023-07-31T09:07:06;97234.28;;;18.77;63.75
70589;BME280;58152;49.202;18.744;2023-07-31T09:09:32;97224.25;;;18.81;64.03
70589;BME280;58152;49.202;18.744;2023-07-31T09:11:58;97220.75;;;18.80;63.90
70589;BME280;58152;49.202;18.744;2023-07-31T09:14:25;97224.03;;;18.84;63.43
70589;BME280;58152;49.202;18.744;2023-07-31T09:16:59;97219.78;;;18.92;63.38
70589;BME280;58152;49.202;18.744;2023-07-31T09:19:35;97223.75;;;18.98;62.53
70589;BME280;58152;49.202;18.744;2023-07-31T09:22:06;97212.13;;;18.99;62.74
70589;BME280;58152;49.202;18.744;2023-07-31T09:24:34;97217.69;;;19.07;63.33
70589;BME280;58152;49.202;18.744;2023-07-31T09:27:01;97210.16;;;19.12;63.32
70589;BME280;58152;49.202;18.744;2023-07-31T09:29:28;97205.56;;;19.14;63.28
70589;BME280;58152;49.202;18.744;2023-07-31T09:31:55;97216.56;;;19.21;63.20
70589;BME280;58152;49.202;18.744;2023-07-31T09:34:28;97207.84;;;19.19;61.75
70589;BME280;58152;49.202;18.744;2023-07-31T09:36:57;97205.19;;;19.19;62.71
70589;BME280;58152;49.202;18.744;2023-07-31T09:39:23;97210.00;;;19.25;63.58
70589;BME280;58152;49.202;18.744;2023-07-31T09:41:54;97210.34;;;19.32;63.69
70589;BME280;58152;49.202;18.744;2023-07-31T09:44:20;97199.94;;;19.28;63.78
70589;BME280;58152;49.202;18.744;2023-07-31T09:46:46;97199.09;;;19.28;63.77
70589;BME280;58152;49.202;18.744;2023-07-31T09:49:14;97203.09;;;19.34;63.74
70589;BME280;58152;49.202;18.744;2023-07-31T09:51:41;97191.34;;;19.36;64.01
70589;BME280;58152;49.202;18.744;2023-07-31T09:54:16;97193.84;;;19.38;63.73
70589;BME280;58152;49.202;18.744;2023-07-31T09:56:46;97174.28;;;19.39;62.45
70589;BME280;58152;49.202;18.744;2023-07-31T09:59:17;97188.88;;;19.44;63.04
70589;BME280;58152;49.202;18.744;2023-07-31T10:01:45;97169.16;;;19.47;63.38
70589;BME280;58152;49.202;18.744;2023-07-31T10:04:12;97172.53;;;19.49;62.58
70589;BME280;58152;49.202;18.744;2023-07-31T10:06:38;97172.53;;;19.49;62.41
70589;BME280;58152;49.202;18.744;2023-07-31T10:09:07;97162.72;;;19.49;62.09
70589;BME280;58152;49.202;18.744;2023-07-31T10:11:46;97155.06;;;19.56;61.64
70589;BME280;58152;49.202;18.744;2023-07-31T10:14:20;97157.47;;;19.59;62.27
70589;BME280;58152;49.202;18.744;2023-07-31T10:16:47;97156.03;;;19.55;62.50
70589;BME280;58152;49.202;18.744;2023-07-31T10:19:15;97152.16;;;19.59;62.51
70589;BME280;58152;49.202;18.744;2023-07-31T10:21:42;97156.34;;;19.73;62.34
70589;BME280;58152;49.202;18.744;2023-07-31T10:24:08;97156.13;;;19.86;62.27
70589;BME280;58152;49.202;18.744;2023-07-31T10:26:35;97154.75;;;19.91;61.61
70589;BME280;58152;49.202;18.744;2023-07-31T10:29:03;97148.97;;;20.07;61.42
70589;BME280;58152;49.202;18.744;2023-07-31T10:31:30;97141.22;;;20.04;62.02
70589;BME280;58152;49.202;18.744;2023-07-31T10:33:57;97147.13;;;20.08;62.05
70589;BME280;58152;49.202;18.744;2023-07-31T10:36:24;97155.84;;;20.19;62.18
70589;BME280;58152;49.202;18.744;2023-07-31T10:38:50;97147.47;;;20.24;61.25
70589;BME280;58152;49.202;18.744;2023-07-31T10:41:16;97152.81;;;20.34;60.13
70589;BME280;58152;49.202;18.744;2023-07-31T10:43:42;97149.34;;;20.43;59.18
70589;BME280;58152;49.202;18.744;2023-07-31T10:46:11;97149.94;;;20.46;59.25
70589;BME280;58152;49.202;18.744;2023-07-31T10:48:38;97162.50;;;20.65;58.03
70589;BME280;58152;49.202;18.744;2023-07-31T10:51:10;97152.84;;;20.93;56.65
70589;BME280;58152;49.202;18.744;2023-07-31T10:53:37;97151.91;;;21.04;57.07
70589;BME280;58152;49.202;18.744;2023-07-31T10:56:10;97150.91;;;21.15;56.83
70589;BME280;58152;49.202;18.744;2023-07-31T10:58:43;97141.91;;;21.16;57.47
70589;BME280;58152;49.202;18.744;2023-07-31T11:01:09;97143.63;;;21.17;57.06
70589;BME280;58152;49.202;18.744;2023-07-31T11:03:48;97142.22;;;21.22;56.49
70589;BME280;58152;49.202;18.744;2023-07-31T11:06:15;97129.72;;;21.23;57.28
70589;BME280;58152;49.202;18.744;2023-07-31T11:08:45;97133.06;;;21.25;57.23
70589;BME280;58152;49.202;18.744;2023-07-31T11:11:13;97125.78;;;21.27;56.96
70589;BME280;58152;49.202;18.744;2023-07-31T11:16:08;97117.97;;;21.35;57.08
70589;BME280;58152;49.202;18.744;2023-07-31T11:18:35;97112.59;;;21.54;56.26
70589;BME280;58152;49.202;18.744;2023-07-31T11:21:00;97106.72;;;21.88;54.50
70589;BME280;58152;49.202;18.744;2023-07-31T11:23:26;97121.25;;;22.23;54.23
70589;BME280;58152;49.202;18.744;2023-07-31T11:25:51;97112.13;;;22.43;52.52
70589;BME280;58152;49.202;18.744;2023-07-31T11:28:18;97116.28;;;22.55;52.83
70589;BME280;58152;49.202;18.744;2023-07-31T11:30:45;97111.41;;;22.51;52.79
70589;BME280;58152;49.202;18.744;2023-07-31T11:33:12;97110.47;;;22.42;52.67
70589;BME280;58152;49.202;18.744;2023-07-31T11:35:44;97110.28;;;22.44;51.70
70589;BME280;58152;49.202;18.744;2023-07-31T11:38:23;97103.44;;;22.41;52.19
70589;BME280;58152;49.202;18.744;2023-07-31T11:40:49;97102.34;;;22.34;52.46
70589;BME280;58152;49.202;18.744;2023-07-31T11:43:15;97114.19;;;22.31;52.24
70589;BME280;58152;49.202;18.744;2023-07-31T11:45:46;97112.69;;;22.19;51.84
70589;BME280;58152;49.202;18.744;2023-07-31T11:48:21;97103.38;;;22.23;51.36
70589;BME280;58152;49.202;18.744;2023-07-31T11:50:49;97103.78;;;22.28;51.29
70589;BME280;58152;49.202;18.744;2023-07-31T11:53:16;97099.28;;;22.29;51.40
70589;BME280;58152;49.202;18.744;2023-07-31T11:55:42;97107.06;;;22.40;51.39
70589;BME280;58152;49.202;18.744;2023-07-31T11:58:09;97102.72;;;22.39;51.71
70589;BME280;58152;49.202;18.744;2023-07-31T12:00:34;97104.88;;;22.53;50.85
70589;BME280;58152;49.202;18.744;2023-07-31T12:03:00;97101.69;;;22.50;51.40
70589;BME280;58152;49.202;18.744;2023-07-31T12:05:25;97104.16;;;22.61;50.88
70589;BME280;58152;49.202;18.744;2023-07-31T12:07:54;97102.31;;;22.62;50.85
70589;BME280;58152;49.202;18.744;2023-07-31T12:10:38;97081.09;;;22.60;47.61
70589;BME280;58152;49.202;18.744;2023-07-31T12:13:08;97083.84;;;22.86;49.71
70589;BME280;58152;49.202;18.744;2023-07-31T12:15:43;97069.72;;;23.12;49.44
70589;BME280;58152;49.202;18.744;2023-07-31T12:18:11;97074.59;;;23.34;49.29
70589;BME280;58152;49.202;18.744;2023-07-31T12:20:41;97076.28;;;23.61;48.22
70589;BME280;58152;49.202;18.744;2023-07-31T12:23:07;97075.25;;;23.80;48.50
70589;BME280;58152;49.202;18.744;2023-07-31T12:25:33;97060.28;;;23.95;47.52
70589;BME280;58152;49.202;18.744;2023-07-31T12:28:04;97066.56;;;24.12;47.23
70589;BME280;58152;49.202;18.744;2023-07-31T12:30:34;97070.16;;;24.29;47.12
70589;BME280;58152;49.202;18.744;2023-07-31T12:33:04;97067.19;;;24.40;45.79
70589;BME280;58152;49.202;18.744;2023-07-31T12:35:50;97059.66;;;24.44;44.86
70589;BME280;58152;49.202;18.744;2023-07-31T12:38:21;97057.22;;;24.32;45.96
70589;BME280;58152;49.202;18.744;2023-07-31T12:40:46;97055.69;;;24.22;46.11
70589;BME280;58152;49.202;18.744;2023-07-31T12:43:13;97057.69;;;24.12;46.23
70589;BME280;58152;49.202;18.744;2023-07-31T12:45:38;97050.78;;;24.01;46.27
70589;BME280;58152;49.202;18.744;2023-07-31T12:48:04;97056.50;;;24.14;45.79
70589;BME280;58152;49.202;18.744;2023-07-31T12:50:29;97037.97;;;24.29;45.02
70589;BME280;58152;49.202;18.744;2023-07-31T12:52:56;97036.03;;;24.39;44.64
70589;BME280;58152;49.202;18.744;2023-07-31T12:55:22;97026.19;;;24.56;44.95
70589;BME280;58152;49.202;18.744;2023-07-31T12:57:47;97022.66;;;24.64;45.52